createdAt,value
2023-01-13T00:00:20.114Z,0.00
2023-01-13T00:01:20.092Z,0.00
2023-01-13T00:02:20.154Z,0.00
2023-01-13T00:03:20.080Z,0.00
2023-01-13T00:04:20.024Z,0.00
2023-01-13T00:05:20.037Z,0.00
2023-01-13T00:06:20.011Z,0.00
2023-01-13T00:07:20.010Z,0.00
2023-01-13T00:08:20.000Z,0.00
2023-01-13T00:09:19.973Z,0.00
2023-01-13T00:10:19.976Z,0.00
2023-01-13T00:11:19.957Z,0.00
2023-01-13T00:12:19.919Z,0.00
2023-01-13T00:13:19.932Z,0.00
2023-01-13T00:14:19.890Z,0.00
2023-01-13T00:15:19.912Z,0.00
2023-01-13T00:16:19.907Z,0.00
2023-01-13T00:17:19.864Z,0.00
2023-01-13T00:18:19.850Z,0.00
2023-01-13T00:19:19.844Z,0.00
2023-01-13T00:20:19.837Z,0.00
2023-01-13T00:21:19.801Z,0.00
2023-01-13T00:22:19.811Z,0.00
2023-01-13T00:23:19.798Z,0.00
2023-01-13T00:24:19.758Z,0.00
2023-01-13T00:25:19.747Z,0.00
2023-01-13T00:26:19.769Z,0.00
2023-01-13T00:27:19.769Z,0.00
2023-01-13T00:28:19.712Z,0.00
2023-01-13T00:29:19.706Z,0.00
2023-01-13T00:30:19.704Z,0.00
2023-01-13T00:31:19.786Z,0.00
2023-01-13T00:32:19.669Z,0.00
2023-01-13T00:33:19.661Z,0.00
2023-01-13T00:34:19.674Z,0.00
2023-01-13T00:35:19.636Z,0.00
2023-01-13T00:36:19.639Z,0.00
2023-01-13T00:37:19.622Z,0.00
2023-01-13T00:38:19.590Z,0.00
2023-01-13T00:39:19.600Z,0.00
2023-01-13T00:40:19.550Z,0.00
2023-01-13T00:41:19.570Z,0.00
2023-01-13T00:42:19.524Z,0.00
2023-01-13T00:43:19.513Z,0.00
2023-01-13T00:44:19.545Z,0.00
2023-01-13T00:45:19.499Z,0.00
2023-01-13T00:46:19.604Z,0.00
2023-01-13T00:47:19.462Z,0.00
2023-01-13T00:48:19.451Z,0.00
2023-01-13T00:49:19.478Z,0.00
2023-01-13T00:50:19.433Z,0.00
2023-01-13T00:51:19.427Z,0.00
2023-01-13T00:52:19.430Z,0.00
2023-01-13T00:53:19.386Z,0.00
2023-01-13T00:54:19.356Z,0.00
2023-01-13T00:55:19.354Z,0.00
2023-01-13T00:56:22.096Z,0.00
2023-01-13T00:57:19.346Z,0.00
2023-01-13T00:58:19.305Z,0.00
2023-01-13T00:59:19.300Z,0.00
2023-01-13T01:00:19.285Z,0.00
2023-01-13T01:01:19.404Z,0.00
2023-01-13T01:02:19.289Z,0.00
2023-01-13T01:03:19.238Z,0.00
2023-01-13T01:04:19.233Z,0.00
2023-01-13T01:05:19.207Z,0.00
2023-01-13T01:06:19.212Z,0.00
2023-01-13T01:07:19.210Z,0.00
2023-01-13T01:08:19.212Z,0.00
2023-01-13T01:09:19.172Z,0.00
2023-01-13T01:10:19.169Z,0.00
2023-01-13T01:11:19.149Z,0.00
2023-01-13T01:12:19.120Z,0.00
2023-01-13T01:13:19.108Z,0.00
2023-01-13T01:14:19.116Z,0.00
2023-01-13T01:15:19.082Z,0.00
2023-01-13T01:16:19.120Z,0.00
2023-01-13T01:17:19.084Z,0.00
2023-01-13T01:18:19.068Z,0.00
2023-01-13T01:19:19.045Z,0.00
2023-01-13T01:20:19.042Z,0.00
2023-01-13T01:21:19.006Z,0.00
2023-01-13T01:22:19.005Z,0.00
2023-01-13T01:23:18.988Z,0.00
2023-01-13T01:24:18.990Z,0.00
2023-01-13T01:25:19.010Z,0.00
2023-01-13T01:26:18.944Z,0.00
2023-01-13T01:27:18.967Z,0.00
2023-01-13T01:28:18.924Z,0.00
2023-01-13T01:29:18.928Z,0.00
2023-01-13T01:30:18.897Z,0.00
2023-01-13T01:31:18.949Z,0.00
2023-01-13T01:32:18.886Z,0.00
2023-01-13T01:33:18.861Z,0.00
2023-01-13T01:34:18.864Z,0.00
2023-01-13T01:35:18.820Z,0.00
2023-01-13T01:36:18.843Z,0.00
2023-01-13T01:37:18.789Z,0.00
2023-01-13T01:38:18.815Z,0.00
2023-01-13T01:39:18.799Z,0.00
2023-01-13T01:40:18.787Z,0.00
2023-01-13T01:41:18.767Z,0.00
2023-01-13T01:42:18.747Z,0.00
2023-01-13T01:43:18.753Z,0.00
2023-01-13T01:44:18.694Z,0.00
2023-01-13T01:45:18.690Z,0.00
2023-01-13T01:46:18.708Z,0.00
2023-01-13T01:47:18.688Z,0.00
2023-01-13T01:48:18.658Z,0.00
2023-01-13T01:49:18.683Z,0.00
2023-01-13T01:50:18.648Z,0.00
2023-01-13T01:51:18.634Z,0.00
2023-01-13T01:52:18.635Z,0.00
2023-01-13T01:53:18.611Z,0.00
2023-01-13T01:54:18.589Z,0.00
2023-01-13T01:55:18.604Z,0.00
2023-01-13T01:56:18.538Z,0.00
2023-01-13T01:57:18.536Z,0.00
2023-01-13T01:58:18.512Z,0.00
2023-01-13T01:59:18.526Z,0.00
2023-01-13T02:00:18.492Z,0.00
2023-01-13T02:01:18.648Z,0.00
2023-01-13T02:02:18.476Z,0.00
2023-01-13T02:03:18.491Z,0.00
2023-01-13T02:04:18.464Z,0.00
2023-01-13T02:05:18.436Z,0.00
2023-01-13T02:06:18.443Z,0.00
2023-01-13T02:07:18.459Z,0.00
2023-01-13T02:08:18.413Z,0.00
2023-01-13T02:09:18.412Z,0.00
2023-01-13T02:10:18.361Z,0.00
2023-01-13T02:11:18.350Z,0.00
2023-01-13T02:12:18.351Z,0.00
2023-01-13T02:13:18.335Z,0.00
2023-01-13T02:14:18.322Z,0.00
2023-01-13T02:15:18.315Z,0.00
2023-01-13T02:16:18.322Z,0.00
2023-01-13T02:17:18.258Z,0.00
2023-01-13T02:18:18.321Z,0.00
2023-01-13T02:19:18.302Z,0.00
2023-01-13T02:20:18.275Z,0.00
2023-01-13T02:21:18.222Z,0.00
2023-01-13T02:22:18.194Z,0.00
2023-01-13T02:23:18.226Z,0.00
2023-01-13T02:24:18.179Z,0.00
2023-01-13T02:25:18.209Z,0.00
2023-01-13T02:26:18.184Z,0.00
2023-01-13T02:27:18.149Z,0.00
2023-01-13T02:28:18.117Z,0.00
2023-01-13T02:29:18.150Z,0.00
2023-01-13T02:30:18.134Z,0.00
2023-01-13T02:31:18.138Z,0.00
2023-01-13T02:32:18.056Z,0.00
2023-01-13T02:33:18.086Z,0.00
2023-01-13T02:34:18.070Z,0.00
2023-01-13T02:35:18.067Z,0.00
2023-01-13T02:36:18.075Z,0.00
2023-01-13T02:37:18.020Z,0.00
2023-01-13T02:38:17.984Z,0.00
2023-01-13T02:39:17.985Z,0.00
2023-01-13T02:40:17.970Z,0.00
2023-01-13T02:41:17.993Z,0.00
2023-01-13T02:42:17.989Z,0.00
2023-01-13T02:43:17.934Z,0.00
2023-01-13T02:44:17.893Z,0.00
2023-01-13T02:45:17.908Z,0.00
2023-01-13T02:46:17.894Z,0.00
2023-01-13T02:47:17.863Z,0.00
2023-01-13T02:48:17.857Z,0.00
2023-01-13T02:49:17.853Z,0.00
2023-01-13T02:50:17.834Z,0.00
2023-01-13T02:51:17.810Z,0.00
2023-01-13T02:52:17.839Z,0.00
2023-01-13T02:53:17.800Z,0.00
2023-01-13T02:54:17.836Z,0.00
2023-01-13T02:55:17.775Z,0.00
2023-01-13T02:56:17.779Z,0.00
2023-01-13T02:57:17.739Z,0.00
2023-01-13T02:58:17.761Z,0.00
2023-01-13T02:59:17.713Z,0.00
2023-01-13T03:00:17.714Z,0.00
2023-01-13T03:01:17.880Z,0.00
2023-01-13T03:02:17.897Z,0.00
2023-01-13T03:03:17.650Z,0.00
2023-01-13T03:04:17.682Z,0.00
2023-01-13T03:05:17.616Z,0.00
2023-01-13T03:06:17.596Z,0.00
2023-01-13T03:07:17.579Z,0.00
2023-01-13T03:08:17.629Z,0.00
2023-01-13T03:09:17.555Z,0.00
2023-01-13T03:10:17.549Z,0.00
2023-01-13T03:11:17.597Z,0.00
2023-01-13T03:12:17.554Z,0.00
2023-01-13T03:13:17.520Z,0.00
2023-01-13T03:14:17.528Z,0.00
2023-01-13T03:15:17.483Z,0.00
2023-01-13T03:16:17.503Z,0.00
2023-01-13T03:17:17.444Z,0.00
2023-01-13T03:18:17.452Z,0.00
2023-01-13T03:19:17.419Z,0.00
2023-01-13T03:20:17.421Z,0.00
2023-01-13T03:21:17.414Z,0.00
2023-01-13T03:22:17.403Z,0.00
2023-01-13T03:23:17.370Z,0.00
2023-01-13T03:24:17.363Z,0.00
2023-01-13T03:25:17.368Z,0.00
2023-01-13T03:26:17.383Z,0.00
2023-01-13T03:27:17.330Z,0.00
2023-01-13T03:28:17.349Z,0.00
2023-01-13T03:29:17.309Z,0.00
2023-01-13T03:30:17.302Z,0.00
2023-01-13T03:31:17.262Z,0.00
2023-01-13T03:32:17.253Z,0.00
2023-01-13T03:33:17.249Z,0.00
2023-01-13T03:34:17.240Z,0.00
2023-01-13T03:35:17.227Z,0.00
2023-01-13T03:36:17.234Z,0.00
2023-01-13T03:37:17.188Z,0.00
2023-01-13T03:38:17.215Z,0.00
2023-01-13T03:39:17.155Z,0.00
2023-01-13T03:40:17.172Z,0.00
2023-01-13T03:41:17.168Z,0.00
2023-01-13T03:42:17.137Z,0.00
2023-01-13T03:43:17.137Z,0.00
2023-01-13T03:44:17.112Z,0.00
2023-01-13T03:45:17.109Z,0.00
2023-01-13T03:46:17.163Z,0.00
2023-01-13T03:47:17.063Z,0.00
2023-01-13T03:48:17.051Z,0.00
2023-01-13T03:49:17.024Z,0.00
2023-01-13T03:50:17.039Z,0.00
2023-01-13T03:51:17.021Z,0.00
2023-01-13T03:52:17.010Z,0.00
2023-01-13T03:53:16.973Z,0.00
2023-01-13T03:54:16.962Z,0.00
2023-01-13T03:55:16.957Z,0.00
2023-01-13T03:56:16.938Z,0.00
2023-01-13T03:57:16.938Z,0.00
2023-01-13T03:58:16.988Z,0.00
2023-01-13T03:59:16.904Z,0.00
2023-01-13T04:00:16.904Z,0.00
2023-01-13T04:01:16.971Z,0.00
2023-01-13T04:02:16.930Z,0.00
2023-01-13T04:03:16.847Z,0.00
2023-01-13T04:04:16.833Z,0.00
2023-01-13T04:05:16.808Z,0.00
2023-01-13T04:06:16.845Z,0.00
2023-01-13T04:07:16.797Z,0.00
2023-01-13T04:08:16.857Z,0.00
2023-01-13T04:09:16.767Z,0.00
2023-01-13T04:10:16.760Z,0.00
2023-01-13T04:11:16.739Z,0.00
2023-01-13T04:12:16.723Z,0.00
2023-01-13T04:13:16.735Z,0.00
2023-01-13T04:14:16.723Z,0.00
2023-01-13T04:15:16.711Z,0.00
2023-01-13T04:16:16.697Z,0.00
2023-01-13T04:17:16.664Z,0.00
2023-01-13T04:18:16.672Z,0.00
2023-01-13T04:19:16.642Z,0.00
2023-01-13T04:20:16.619Z,0.00
2023-01-13T04:21:16.649Z,0.00
2023-01-13T04:22:16.609Z,0.00
2023-01-13T04:23:16.605Z,0.00
2023-01-13T04:24:16.580Z,0.00
2023-01-13T04:25:16.547Z,0.00
2023-01-13T04:26:16.548Z,0.00
2023-01-13T04:27:16.540Z,0.00
2023-01-13T04:28:16.511Z,0.00
2023-01-13T04:29:16.502Z,0.00
2023-01-13T04:30:16.501Z,0.00
2023-01-13T04:31:16.508Z,0.00
2023-01-13T04:32:16.499Z,0.00
2023-01-13T04:33:16.466Z,0.00
2023-01-13T04:34:16.431Z,0.00
2023-01-13T04:35:16.428Z,0.00
2023-01-13T04:36:16.431Z,0.00
2023-01-13T04:37:16.411Z,0.00
2023-01-13T04:38:16.401Z,0.00
2023-01-13T04:39:16.363Z,0.00
2023-01-13T04:40:16.380Z,0.00
2023-01-13T04:41:16.350Z,0.00
2023-01-13T04:42:16.326Z,0.00
2023-01-13T04:43:16.340Z,0.00
2023-01-13T04:44:16.293Z,0.00
2023-01-13T04:45:16.315Z,0.00
2023-01-13T04:46:16.283Z,0.00
2023-01-13T04:47:16.276Z,0.00
2023-01-13T04:48:16.254Z,0.00
2023-01-13T04:49:16.235Z,0.00
2023-01-13T04:50:16.227Z,0.00
2023-01-13T04:51:16.209Z,0.00
2023-01-13T04:52:16.191Z,0.00
2023-01-13T04:53:16.201Z,0.00
2023-01-13T04:54:16.217Z,0.00
2023-01-13T04:55:16.177Z,0.00
2023-01-13T04:56:16.164Z,0.00
2023-01-13T04:57:16.160Z,0.00
2023-01-13T04:58:16.108Z,0.00
2023-01-13T04:59:16.127Z,0.00
2023-01-13T05:00:16.092Z,0.00
2023-01-13T05:01:16.228Z,0.00
2023-01-13T05:02:16.127Z,0.00
2023-01-13T05:03:16.073Z,0.00
2023-01-13T05:04:16.039Z,0.00
2023-01-13T05:05:16.059Z,0.00
2023-01-13T05:06:16.014Z,0.00
2023-01-13T05:07:16.033Z,0.00
2023-01-13T05:08:16.000Z,0.00
2023-01-13T05:09:15.982Z,0.00
2023-01-13T05:10:15.963Z,0.00
2023-01-13T05:11:15.952Z,0.00
2023-01-13T05:12:15.970Z,0.00
2023-01-13T05:13:15.919Z,0.00
2023-01-13T05:14:15.928Z,0.00
2023-01-13T05:15:15.894Z,0.00
2023-01-13T05:16:15.913Z,0.00
2023-01-13T05:17:15.884Z,0.00
2023-01-13T05:18:15.857Z,0.00
2023-01-13T05:19:15.865Z,0.00
2023-01-13T05:20:15.833Z,0.00
2023-01-13T05:21:15.823Z,0.00
2023-01-13T05:22:15.822Z,0.00
2023-01-13T05:23:15.803Z,0.00
2023-01-13T05:24:15.780Z,0.00
2023-01-13T05:25:15.763Z,0.00
2023-01-13T05:26:15.743Z,0.00
2023-01-13T05:27:15.744Z,0.00
2023-01-13T05:28:15.722Z,0.00
2023-01-13T05:29:15.715Z,0.00
2023-01-13T05:30:15.687Z,0.00
2023-01-13T05:31:15.725Z,0.00
2023-01-13T05:32:15.677Z,0.00
2023-01-13T05:33:15.647Z,0.00
2023-01-13T05:34:15.649Z,0.00
2023-01-13T05:35:15.646Z,0.00
2023-01-13T05:36:15.613Z,0.00
2023-01-13T05:37:15.593Z,0.00
2023-01-13T05:38:15.585Z,0.00
2023-01-13T05:39:15.572Z,0.00
2023-01-13T05:40:15.568Z,0.00
2023-01-13T05:41:15.542Z,0.00
2023-01-13T05:42:15.528Z,0.00
2023-01-13T05:43:15.525Z,0.00
2023-01-13T05:44:15.518Z,0.00
2023-01-13T05:45:15.514Z,0.00
2023-01-13T05:46:15.535Z,0.00
2023-01-13T05:47:15.461Z,0.00
2023-01-13T05:48:15.488Z,0.00
2023-01-13T05:49:15.458Z,0.00
2023-01-13T05:50:15.435Z,0.00
2023-01-13T05:51:15.413Z,0.00
2023-01-13T05:52:15.413Z,0.00
2023-01-13T05:53:15.413Z,0.00
2023-01-13T05:54:15.403Z,0.00
2023-01-13T05:55:15.382Z,0.00
2023-01-13T05:56:15.336Z,0.00
2023-01-13T05:57:15.332Z,0.00
2023-01-13T05:58:15.333Z,0.00
2023-01-13T05:59:15.323Z,0.00
2023-01-13T06:00:15.282Z,0.00
2023-01-13T06:01:15.349Z,0.00
2023-01-13T06:02:15.264Z,0.00
2023-01-13T06:03:15.326Z,0.00
2023-01-13T06:04:15.276Z,0.00
2023-01-13T06:05:15.250Z,0.00
2023-01-13T06:06:15.224Z,0.00
2023-01-13T06:07:15.206Z,0.00
2023-01-13T06:08:15.184Z,0.00
2023-01-13T06:09:15.171Z,0.00
2023-01-13T06:10:15.189Z,0.00
2023-01-13T06:11:15.160Z,0.00
2023-01-13T06:12:15.140Z,0.00
2023-01-13T06:13:15.144Z,0.00
2023-01-13T06:14:15.104Z,0.00
2023-01-13T06:15:15.115Z,0.00
2023-01-13T06:16:15.103Z,0.00
2023-01-13T06:17:15.091Z,0.00
2023-01-13T06:18:15.051Z,0.00
2023-01-13T06:19:15.078Z,0.00
2023-01-13T06:20:15.027Z,0.00
2023-01-13T06:21:15.015Z,0.00
2023-01-13T06:22:14.991Z,0.00
2023-01-13T06:23:14.994Z,0.00
2023-01-13T06:24:14.980Z,0.00
2023-01-13T06:25:14.957Z,0.00
2023-01-13T06:26:14.941Z,0.00
2023-01-13T06:27:14.956Z,0.00
2023-01-13T06:28:14.941Z,0.00
2023-01-13T06:29:14.945Z,0.00
2023-01-13T06:30:14.901Z,0.00
2023-01-13T06:31:14.911Z,0.00
2023-01-13T06:32:14.889Z,0.00
2023-01-13T06:33:14.871Z,0.00
2023-01-13T06:34:14.854Z,0.00
2023-01-13T06:35:14.849Z,0.00
2023-01-13T06:36:14.837Z,0.00
2023-01-13T06:37:14.821Z,4.00
2023-01-13T06:38:14.829Z,4.00
2023-01-13T06:39:14.930Z,4.00
2023-01-13T06:40:14.754Z,4.00
2023-01-13T06:41:14.799Z,0.00
2023-01-13T06:42:14.741Z,4.00
2023-01-13T06:43:16.363Z,4.00
2023-01-13T06:44:14.710Z,4.00
2023-01-13T06:45:14.730Z,4.00
2023-01-13T06:46:14.750Z,8.00
2023-01-13T06:47:14.682Z,8.00
2023-01-13T06:48:14.674Z,8.00
2023-01-13T06:49:14.655Z,12.00
2023-01-13T06:50:14.696Z,12.00
2023-01-13T06:51:14.630Z,16.00
2023-01-13T06:52:14.601Z,20.00
2023-01-13T06:53:14.617Z,24.00
2023-01-13T06:54:14.582Z,24.00
2023-01-13T06:55:14.570Z,28.00
2023-01-13T06:56:14.554Z,32.00
2023-01-13T06:57:14.565Z,36.00
2023-01-13T06:58:14.518Z,40.00
2023-01-13T06:59:14.546Z,44.00
2023-01-13T07:00:14.508Z,48.00
2023-01-13T07:01:14.687Z,52.00
2023-01-13T07:02:14.605Z,52.00
2023-01-13T07:03:14.473Z,60.00
2023-01-13T07:04:14.436Z,60.00
2023-01-13T07:05:14.454Z,60.00
2023-01-13T07:06:14.438Z,56.00
2023-01-13T07:07:14.423Z,56.00
2023-01-13T07:08:14.383Z,60.00
2023-01-13T07:09:14.403Z,60.00
2023-01-13T07:10:14.375Z,68.00
2023-01-13T07:11:14.351Z,76.00
2023-01-13T07:12:14.354Z,80.00
2023-01-13T07:13:14.439Z,84.00
2023-01-13T07:14:14.332Z,88.00
2023-01-13T07:15:14.311Z,84.00
2023-01-13T07:16:14.315Z,68.00
2023-01-13T07:17:14.320Z,68.00
2023-01-13T07:18:14.289Z,72.00
2023-01-13T07:19:14.305Z,88.00
2023-01-13T07:20:14.227Z,104.00
2023-01-13T07:21:14.242Z,140.00
2023-01-13T07:22:14.218Z,176.00
2023-01-13T07:23:14.255Z,228.00
2023-01-13T07:24:14.182Z,284.00
2023-01-13T07:25:14.205Z,328.00
2023-01-13T07:26:14.185Z,356.00
2023-01-13T07:27:14.183Z,388.00
2023-01-13T07:28:14.178Z,404.00
2023-01-13T07:29:14.161Z,416.00
2023-01-13T07:30:14.139Z,412.00
2023-01-13T07:31:14.222Z,408.00
2023-01-13T07:32:14.116Z,404.00
2023-01-13T07:33:14.086Z,380.00
2023-01-13T07:34:14.067Z,336.00
2023-01-13T07:35:14.065Z,284.00
2023-01-13T07:36:14.040Z,264.00
2023-01-13T07:37:14.058Z,272.00
2023-01-13T07:38:14.052Z,284.00
2023-01-13T07:39:14.014Z,292.00
2023-01-13T07:40:14.016Z,288.00
2023-01-13T07:41:13.954Z,300.00
2023-01-13T07:42:13.942Z,304.00
2023-01-13T07:43:13.967Z,304.00
2023-01-13T07:44:13.967Z,316.00
2023-01-13T07:45:13.912Z,328.00
2023-01-13T07:46:13.912Z,352.00
2023-01-13T07:47:13.888Z,424.00
2023-01-13T07:48:13.855Z,488.00
2023-01-13T07:49:13.860Z,492.00
2023-01-13T07:50:13.837Z,472.00
2023-01-13T07:51:13.834Z,464.00
2023-01-13T07:52:13.859Z,448.00
2023-01-13T07:53:13.800Z,444.00
2023-01-13T07:54:13.788Z,464.00
2023-01-13T07:55:13.768Z,484.00
2023-01-13T07:56:13.764Z,472.00
2023-01-13T07:57:13.745Z,448.00
2023-01-13T07:58:13.739Z,432.00
2023-01-13T07:59:13.730Z,488.00
2023-01-13T08:00:13.712Z,576.00
2023-01-13T08:01:13.866Z,628.00
2023-01-13T08:02:13.816Z,628.00
2023-01-13T08:03:13.673Z,588.00
2023-01-13T08:04:13.656Z,544.00
2023-01-13T08:05:13.658Z,504.00
2023-01-13T08:06:13.617Z,460.00
2023-01-13T08:07:13.627Z,448.00
2023-01-13T08:08:13.604Z,428.00
2023-01-13T08:09:13.588Z,424.00
2023-01-13T08:10:13.576Z,472.00
2023-01-13T08:11:13.582Z,556.00
2023-01-13T08:12:13.559Z,648.00
2023-01-13T08:13:13.546Z,780.00
2023-01-13T08:14:13.510Z,840.00
2023-01-13T08:15:13.542Z,876.00
2023-01-13T08:16:13.578Z,1008.00
2023-01-13T08:17:13.514Z,1076.00
2023-01-13T08:18:13.503Z,1140.00
2023-01-13T08:19:13.454Z,1164.00
2023-01-13T08:20:13.467Z,1192.00
2023-01-13T08:21:13.446Z,1272.00
2023-01-13T08:22:13.434Z,1436.00
2023-01-13T08:23:14.356Z,1664.00
2023-01-13T08:24:13.392Z,1712.00
2023-01-13T08:25:13.395Z,1632.00
2023-01-13T08:26:13.380Z,1524.00
2023-01-13T08:27:13.424Z,1508.00
2023-01-13T08:28:13.536Z,1596.00
2023-01-13T08:29:15.054Z,1592.00
2023-01-13T08:30:13.314Z,1404.00
2023-01-13T08:31:13.403Z,1220.00
2023-01-13T08:32:13.295Z,1272.00
2023-01-13T08:33:13.325Z,1620.00
2023-01-13T08:34:13.264Z,2220.00
2023-01-13T08:35:13.256Z,2640.00
2023-01-13T08:36:13.257Z,2748.00
2023-01-13T08:37:13.290Z,2916.00
2023-01-13T08:38:13.245Z,3128.00
2023-01-13T08:39:13.185Z,3312.00
2023-01-13T08:40:13.172Z,3424.00
2023-01-13T08:41:13.158Z,3448.00
2023-01-13T08:42:13.167Z,3592.00
2023-01-13T08:43:13.189Z,3732.00
2023-01-13T08:44:13.145Z,3832.00
2023-01-13T08:45:13.110Z,3976.00
2023-01-13T08:46:13.154Z,4152.00
2023-01-13T08:47:13.901Z,4384.00
2023-01-13T08:48:13.090Z,4752.00
2023-01-13T08:49:13.054Z,5180.00
2023-01-13T08:50:13.106Z,5592.00
2023-01-13T08:51:13.060Z,5604.00
2023-01-13T08:52:13.043Z,5216.00
2023-01-13T08:53:13.025Z,4484.00
2023-01-13T08:54:13.016Z,3532.00
2023-01-13T08:55:12.985Z,2664.00
2023-01-13T08:56:13.018Z,2252.00
2023-01-13T08:57:12.995Z,2188.00
2023-01-13T08:58:16.423Z,2244.00
2023-01-13T08:59:12.938Z,2376.00
2023-01-13T09:00:12.928Z,2484.00
2023-01-13T09:01:12.998Z,2480.00
2023-01-13T09:02:13.035Z,2220.00
2023-01-13T09:03:12.903Z,1848.00
2023-01-13T09:04:12.912Z,1584.00
2023-01-13T09:05:12.895Z,1388.00
2023-01-13T09:06:12.832Z,1180.00
2023-01-13T09:07:12.844Z,1036.00
2023-01-13T09:08:12.846Z,992.00
2023-01-13T09:09:12.792Z,1024.00
2023-01-13T09:10:12.786Z,996.00
2023-01-13T09:11:12.810Z,872.00
2023-01-13T09:12:12.774Z,736.00
2023-01-13T09:13:12.921Z,632.00
2023-01-13T09:14:12.731Z,552.00
2023-01-13T09:15:12.735Z,596.00
2023-01-13T09:16:12.769Z,748.00
2023-01-13T09:17:12.697Z,876.00
2023-01-13T09:18:12.820Z,988.00
2023-01-13T09:19:12.692Z,1060.00
2023-01-13T09:20:12.647Z,1080.00
2023-01-13T09:21:12.642Z,1052.00
2023-01-13T09:22:12.669Z,1076.00
2023-01-13T09:23:12.647Z,1212.00
2023-01-13T09:24:12.611Z,1368.00
2023-01-13T09:25:12.610Z,1468.00
2023-01-13T09:26:12.602Z,1576.00
2023-01-13T09:27:12.579Z,1924.00
2023-01-13T09:28:12.595Z,2088.00
2023-01-13T09:29:12.544Z,1900.00
2023-01-13T09:30:12.512Z,1572.00
2023-01-13T09:31:12.551Z,1324.00
2023-01-13T09:32:12.550Z,1084.00
2023-01-13T09:33:12.464Z,1076.00
2023-01-13T09:34:12.452Z,1488.00
2023-01-13T09:35:12.438Z,2092.00
2023-01-13T09:36:12.432Z,2760.00
2023-01-13T09:37:12.417Z,3272.00
2023-01-13T09:38:12.442Z,3736.00
2023-01-13T09:39:12.442Z,4348.00
2023-01-13T09:40:12.396Z,4324.00
2023-01-13T09:41:12.359Z,4352.00
2023-01-13T09:42:12.352Z,4312.00
2023-01-13T09:43:12.332Z,4324.00
2023-01-13T09:44:12.335Z,4620.00
2023-01-13T09:45:12.311Z,4832.00
2023-01-13T09:46:12.361Z,5064.00
2023-01-13T09:47:14.118Z,5084.00
2023-01-13T09:48:12.289Z,4680.00
2023-01-13T09:49:12.286Z,4588.00
2023-01-13T09:50:12.306Z,4480.00
2023-01-13T09:51:12.356Z,4340.00
2023-01-13T09:52:12.230Z,3920.00
2023-01-13T09:53:12.201Z,3320.00
2023-01-13T09:54:12.191Z,2936.00
2023-01-13T09:55:12.191Z,2916.00
2023-01-13T09:56:12.177Z,2896.00
2023-01-13T09:57:12.168Z,2928.00
2023-01-13T09:58:12.172Z,3200.00
2023-01-13T09:59:12.150Z,4180.00
2023-01-13T10:00:12.117Z,3704.00
2023-01-13T10:01:12.173Z,3772.00
2023-01-13T10:02:12.114Z,3552.00
2023-01-13T10:03:12.091Z,3108.00
2023-01-13T10:04:12.084Z,2804.00
2023-01-13T10:05:12.066Z,2636.00
2023-01-13T10:06:12.041Z,2572.00
2023-01-13T10:07:12.043Z,2736.00
2023-01-13T10:08:12.026Z,2868.00
2023-01-13T10:09:12.022Z,2960.00
2023-01-13T10:10:11.988Z,3372.00
2023-01-13T10:11:11.983Z,3724.00
2023-01-13T10:12:12.005Z,3776.00
2023-01-13T10:13:11.956Z,3856.00
2023-01-13T10:14:11.965Z,3636.00
2023-01-13T10:15:11.944Z,3300.00
2023-01-13T10:16:12.009Z,3232.00
2023-01-13T10:17:11.920Z,3340.00
2023-01-13T10:18:11.908Z,3408.00
2023-01-13T10:19:11.915Z,3672.00
2023-01-13T10:20:11.858Z,4032.00
2023-01-13T10:21:11.894Z,4524.00
2023-01-13T10:22:11.885Z,4772.00
2023-01-13T10:23:11.822Z,5024.00
2023-01-13T10:24:11.809Z,5028.00
2023-01-13T10:25:11.813Z,5280.00
2023-01-13T10:26:11.843Z,6032.00
2023-01-13T10:27:11.786Z,6220.00
2023-01-13T10:28:11.769Z,5728.00
2023-01-13T10:29:11.734Z,5260.00
2023-01-13T10:30:11.721Z,5244.00
2023-01-13T10:31:11.739Z,5124.00
2023-01-13T10:32:11.704Z,4868.00
2023-01-13T10:33:11.711Z,4592.00
2023-01-13T10:34:11.717Z,4484.00
2023-01-13T10:35:11.692Z,4352.00
2023-01-13T10:36:11.672Z,4408.00
2023-01-13T10:37:11.634Z,4292.00
2023-01-13T10:38:11.603Z,4188.00
2023-01-13T10:39:11.591Z,4152.00
2023-01-13T10:40:11.604Z,4444.00
2023-01-13T10:41:11.589Z,5064.00
2023-01-13T10:42:11.580Z,5800.00
2023-01-13T10:43:11.588Z,6308.00
2023-01-13T10:44:11.559Z,6636.00
2023-01-13T10:45:11.547Z,6752.00
2023-01-13T10:46:11.556Z,6752.00
2023-01-13T10:47:11.516Z,6656.00
2023-01-13T10:48:11.513Z,6676.00
2023-01-13T10:49:11.480Z,6888.00
2023-01-13T10:50:11.466Z,7236.00
2023-01-13T10:51:11.468Z,7552.00
2023-01-13T10:52:11.478Z,7840.00
2023-01-13T10:53:11.433Z,7516.00
2023-01-13T10:54:11.431Z,6804.00
2023-01-13T10:55:11.396Z,6224.00
2023-01-13T10:56:11.367Z,5888.00
2023-01-13T10:57:11.383Z,6120.00
2023-01-13T10:58:11.358Z,6804.00
2023-01-13T10:59:11.325Z,7344.00
2023-01-13T11:00:11.329Z,7764.00
2023-01-13T11:01:11.350Z,8840.00
2023-01-13T11:02:24.793Z,8852.00
2023-01-13T11:03:11.280Z,8592.00
2023-01-13T11:04:11.286Z,9408.00
2023-01-13T11:05:11.320Z,8820.00
2023-01-13T11:06:11.252Z,7736.00
2023-01-13T11:07:11.232Z,6772.00
2023-01-13T11:08:11.226Z,7404.00
2023-01-13T11:09:11.538Z,9880.00
2023-01-13T11:10:11.199Z,9564.00
2023-01-13T11:11:11.164Z,9352.00
2023-01-13T11:12:11.166Z,10896.00
2023-01-13T11:13:11.247Z,13972.00
2023-01-13T11:14:11.166Z,13072.00
2023-01-13T11:15:11.112Z,12828.00
2023-01-13T11:16:11.140Z,10476.00
2023-01-13T11:17:11.547Z,11320.00
2023-01-13T11:18:11.075Z,12648.00
2023-01-13T11:19:11.085Z,11856.00
2023-01-13T11:20:11.078Z,12036.00
2023-01-13T11:21:11.083Z,11440.00
2023-01-13T11:22:11.064Z,11160.00
2023-01-13T11:23:11.020Z,12124.00
2023-01-13T11:24:11.013Z,9708.00
2023-01-13T11:25:10.986Z,6380.00
2023-01-13T11:26:10.971Z,6992.00
2023-01-13T11:27:10.966Z,7876.00
2023-01-13T11:28:10.956Z,9192.00
2023-01-13T11:29:10.941Z,7104.00
2023-01-13T11:30:10.951Z,5236.00
2023-01-13T11:31:10.933Z,8744.00
2023-01-13T11:32:10.895Z,10920.00
2023-01-13T11:33:10.878Z,10080.00
2023-01-13T11:34:10.862Z,8408.00
2023-01-13T11:35:10.874Z,9544.00
2023-01-13T11:36:10.876Z,9632.00
2023-01-13T11:37:10.837Z,8704.00
2023-01-13T11:38:10.810Z,10632.00
2023-01-13T11:39:10.792Z,11012.00
2023-01-13T11:40:10.815Z,7484.00
2023-01-13T11:41:10.796Z,6808.00
2023-01-13T11:42:10.794Z,7964.00
2023-01-13T11:43:10.768Z,8684.00
2023-01-13T11:44:10.733Z,8764.00
2023-01-13T11:45:10.763Z,11012.00
2023-01-13T11:46:10.724Z,10308.00
2023-01-13T11:47:10.707Z,11364.00
2023-01-13T11:48:10.726Z,9356.00
2023-01-13T11:49:10.682Z,7092.00
2023-01-13T11:50:10.723Z,9988.00
2023-01-13T11:51:10.636Z,12088.00
2023-01-13T11:52:10.646Z,13464.00
2023-01-13T11:53:10.638Z,13848.00
2023-01-13T11:54:10.638Z,13680.00
2023-01-13T11:55:10.640Z,14784.00
2023-01-13T11:56:10.587Z,15520.00
2023-01-13T11:57:10.573Z,14784.00
2023-01-13T11:58:10.577Z,13588.00
2023-01-13T11:59:10.536Z,12392.00
2023-01-13T12:00:10.589Z,11144.00
2023-01-13T12:01:10.585Z,9640.00
2023-01-13T12:02:10.536Z,9464.00
2023-01-13T12:03:10.666Z,12680.00
2023-01-13T12:04:10.476Z,14400.00
2023-01-13T12:05:10.452Z,11756.00
2023-01-13T12:06:10.456Z,11928.00
2023-01-13T12:07:10.427Z,13372.00
2023-01-13T12:08:10.435Z,14204.00
2023-01-13T12:09:10.413Z,12960.00
2023-01-13T12:10:13.425Z,9796.00
2023-01-13T12:11:10.413Z,14032.00
2023-01-13T12:12:10.417Z,15968.00
2023-01-13T12:13:10.370Z,6280.00
2023-01-13T12:14:10.344Z,5364.00
2023-01-13T12:15:10.363Z,5752.00
2023-01-13T12:16:10.363Z,11028.00
2023-01-13T12:17:10.326Z,12308.00
2023-01-13T12:18:10.304Z,12588.00
2023-01-13T12:19:10.283Z,12844.00
2023-01-13T12:20:10.275Z,13360.00
2023-01-13T12:21:10.249Z,14116.00
2023-01-13T12:22:10.247Z,12652.00
2023-01-13T12:23:10.231Z,11580.00
2023-01-13T12:24:10.243Z,10404.00
2023-01-13T12:25:10.203Z,11800.00
2023-01-13T12:26:10.288Z,8096.00
2023-01-13T12:27:10.162Z,4272.00
2023-01-13T12:28:10.188Z,12108.00
2023-01-13T12:29:10.147Z,13208.00
2023-01-13T12:30:10.129Z,11756.00
2023-01-13T12:31:10.124Z,13572.00
2023-01-13T12:32:10.113Z,11072.00
2023-01-13T12:33:10.111Z,10472.00
2023-01-13T12:34:10.109Z,8588.00
2023-01-13T12:35:10.061Z,7556.00
2023-01-13T12:36:10.060Z,4452.00
2023-01-13T12:37:10.047Z,3952.00
2023-01-13T12:38:10.068Z,3860.00
2023-01-13T12:39:10.058Z,3972.00
2023-01-13T12:40:10.042Z,5036.00
2023-01-13T12:41:09.991Z,4764.00
2023-01-13T12:42:09.987Z,3720.00
2023-01-13T12:43:09.979Z,3608.00
2023-01-13T12:44:09.944Z,3552.00
2023-01-13T12:45:09.954Z,3544.00